sensor_id;sensor_type;location;lat;lon;timestamp;P1;durP1;ratioP1;P2;durP2;ratioP2
4363;SDS011;15337;48.202;12.770;2022-07-04T00:00:21;7.78;;;4.72;;
4363;SDS011;15337;48.202;12.770;2022-07-04T00:02:48;6.65;;;4.63;;
4363;SDS011;15337;48.202;12.770;2022-07-04T00:05:17;5.97;;;3.63;;
4363;SDS011;15337;48.202;12.770;2022-07-04T00:07:46;4.00;;;3.80;;
4363;SDS011;15337;48.202;12.770;2022-07-04T00:10:14;5.03;;;4.57;;
4363;SDS011;15337;48.202;12.770;2022-07-04T00:12:42;14.30;;;4.50;;
4363;SDS011;15337;48.202;12.770;2022-07-04T00:15:10;5.00;;;4.60;;
4363;SDS011;15337;48.202;12.770;2022-07-04T00:17:38;5.38;;;4.97;;
4363;SDS011;15337;48.202;12.770;2022-07-04T00:20:06;4.38;;;3.80;;
4363;SDS011;15337;48.202;12.770;2022-07-04T00:22:35;4.50;;;4.07;;
4363;SDS011;15337;48.202;12.770;2022-07-04T00:25:03;4.40;;;3.97;;
4363;SDS011;15337;48.202;12.770;2022-07-04T00:27:31;4.72;;;4.32;;
4363;SDS011;15337;48.202;12.770;2022-07-04T00:29:58;5.43;;;4.93;;
4363;SDS011;15337;48.202;12.770;2022-07-04T00:32:24;5.30;;;4.90;;
4363;SDS011;15337;48.202;12.770;2022-07-04T00:34:51;4.60;;;4.30;;
4363;SDS011;15337;48.202;12.770;2022-07-04T00:37:18;5.15;;;4.13;;
4363;SDS011;15337;48.202;12.770;2022-07-04T00:39:47;4.57;;;4.38;;
4363;SDS011;15337;48.202;12.770;2022-07-04T00:42:14;4.80;;;4.35;;
4363;SDS011;15337;48.202;12.770;2022-07-04T00:44:41;4.35;;;4.03;;
4363;SDS011;15337;48.202;12.770;2022-07-04T00:47:08;5.13;;;4.72;;
4363;SDS011;15337;48.202;12.770;2022-07-04T00:49:35;6.15;;;3.97;;
4363;SDS011;15337;48.202;12.770;2022-07-04T00:52:02;6.28;;;4.43;;
4363;SDS011;15337;48.202;12.770;2022-07-04T00:54:30;4.43;;;4.22;;
4363;SDS011;15337;48.202;12.770;2022-07-04T00:57:00;4.68;;;4.22;;
4363;SDS011;15337;48.202;12.770;2022-07-04T00:59:27;4.20;;;3.90;;
4363;SDS011;15337;48.202;12.770;2022-07-04T01:01:54;4.78;;;4.47;;
4363;SDS011;15337;48.202;12.770;2022-07-04T01:04:21;5.32;;;4.93;;
4363;SDS011;15337;48.202;12.770;2022-07-04T01:06:49;4.32;;;4.03;;
4363;SDS011;15337;48.202;12.770;2022-07-04T01:09:16;4.07;;;3.88;;
4363;SDS011;15337;48.202;12.770;2022-07-04T01:11:43;9.77;;;4.95;;
4363;SDS011;15337;48.202;12.770;2022-07-04T01:14:12;4.63;;;4.43;;
4363;SDS011;15337;48.202;12.770;2022-07-04T01:16:38;4.43;;;3.85;;
4363;SDS011;15337;48.202;12.770;2022-07-04T01:19:05;7.55;;;4.78;;
4363;SDS011;15337;48.202;12.770;2022-07-04T01:21:34;7.45;;;4.18;;
4363;SDS011;15337;48.202;12.770;2022-07-04T01:24:01;4.80;;;4.45;;
4363;SDS011;15337;48.202;12.770;2022-07-04T01:26:28;5.07;;;4.85;;
4363;SDS011;15337;48.202;12.770;2022-07-04T01:28:56;3.95;;;3.65;;
4363;SDS011;15337;48.202;12.770;2022-07-04T01:31:23;4.00;;;3.78;;
4363;SDS011;15337;48.202;12.770;2022-07-04T01:33:50;4.18;;;3.75;;
4363;SDS011;15337;48.202;12.770;2022-07-04T01:36:17;4.75;;;4.55;;
4363;SDS011;15337;48.202;12.770;2022-07-04T01:38:45;5.40;;;5.00;;
4363;SDS011;15337;48.202;12.770;2022-07-04T01:41:12;5.47;;;5.07;;
4363;SDS011;15337;48.202;12.770;2022-07-04T01:43:39;5.40;;;4.32;;
4363;SDS011;15337;48.202;12.770;2022-07-04T01:46:06;5.50;;;4.18;;
4363;SDS011;15337;48.202;12.770;2022-07-04T01:48:33;6.00;;;4.53;;
4363;SDS011;15337;48.202;12.770;2022-07-04T01:51:00;4.93;;;4.35;;
4363;SDS011;15337;48.202;12.770;2022-07-04T01:53:26;4.63;;;4.32;;
4363;SDS011;15337;48.202;12.770;2022-07-04T01:55:55;5.93;;;4.97;;
4363;SDS011;15337;48.202;12.770;2022-07-04T01:58:22;4.68;;;4.28;;
4363;SDS011;15337;48.202;12.770;2022-07-04T02:00:48;5.65;;;5.00;;
4363;SDS011;15337;48.202;12.770;2022-07-04T02:03:33;5.28;;;4.60;;
4363;SDS011;15337;48.202;12.770;2022-07-04T02:06:00;5.85;;;5.40;;
4363;SDS011;15337;48.202;12.770;2022-07-04T02:08:27;5.95;;;5.00;;
4363;SDS011;15337;48.202;12.770;2022-07-04T02:11:15;9.45;;;4.85;;
4363;SDS011;15337;48.202;12.770;2022-07-04T02:13:42;5.95;;;5.65;;
4363;SDS011;15337;48.202;12.770;2022-07-04T02:16:08;5.20;;;5.00;;
4363;SDS011;15337;48.202;12.770;2022-07-04T02:18:35;5.45;;;5.10;;
4363;SDS011;15337;48.202;12.770;2022-07-04T02:21:02;5.70;;;5.38;;
4363;SDS011;15337;48.202;12.770;2022-07-04T02:23:29;6.45;;;5.95;;
4363;SDS011;15337;48.202;12.770;2022-07-04T02:25:56;5.70;;;5.25;;
4363;SDS011;15337;48.202;12.770;2022-07-04T02:28:24;6.72;;;6.10;;
4363;SDS011;15337;48.202;12.770;2022-07-04T02:30:51;6.20;;;5.78;;
4363;SDS011;15337;48.202;12.770;2022-07-04T02:33:18;7.32;;;6.72;;
4363;SDS011;15337;48.202;12.770;2022-07-04T02:35:45;10.93;;;6.38;;
4363;SDS011;15337;48.202;12.770;2022-07-04T02:38:12;5.15;;;4.70;;
4363;SDS011;15337;48.202;12.770;2022-07-04T02:40:39;10.57;;;7.55;;
4363;SDS011;15337;48.202;12.770;2022-07-04T02:43:06;4.63;;;4.13;;
4363;SDS011;15337;48.202;12.770;2022-07-04T02:45:34;5.53;;;5.13;;
4363;SDS011;15337;48.202;12.770;2022-07-04T02:48:01;6.00;;;5.45;;
4363;SDS011;15337;48.202;12.770;2022-07-04T02:50:28;5.90;;;5.50;;
4363;SDS011;15337;48.202;12.770;2022-07-04T02:52:55;5.05;;;4.75;;
4363;SDS011;15337;48.202;12.770;2022-07-04T02:55:22;5.70;;;5.20;;
4363;SDS011;15337;48.202;12.770;2022-07-04T02:57:49;8.63;;;5.68;;
4363;SDS011;15337;48.202;12.770;2022-07-04T03:00:16;4.30;;;4.10;;
4363;SDS011;15337;48.202;12.770;2022-07-04T03:02:44;4.82;;;4.47;;
4363;SDS011;15337;48.202;12.770;2022-07-04T03:05:11;5.97;;;5.35;;
4363;SDS011;15337;48.202;12.770;2022-07-04T03:07:38;4.50;;;4.07;;
4363;SDS011;15337;48.202;12.770;2022-07-04T03:10:05;5.38;;;5.00;;
4363;SDS011;15337;48.202;12.770;2022-07-04T03:12:33;4.85;;;4.65;;
4363;SDS011;15337;48.202;12.770;2022-07-04T03:14:59;9.02;;;4.75;;
4363;SDS011;15337;48.202;12.770;2022-07-04T03:17:26;4.93;;;4.53;;
4363;SDS011;15337;48.202;12.770;2022-07-04T03:19:56;5.95;;;5.35;;
4363;SDS011;15337;48.202;12.770;2022-07-04T03:22:23;5.30;;;5.00;;
4363;SDS011;15337;48.202;12.770;2022-07-04T03:24:50;6.30;;;5.57;;
4363;SDS011;15337;48.202;12.770;2022-07-04T03:27:17;5.22;;;4.72;;
4363;SDS011;15337;48.202;12.770;2022-07-04T03:29:44;5.47;;;5.10;;
4363;SDS011;15337;48.202;12.770;2022-07-04T03:32:11;5.30;;;4.90;;
4363;SDS011;15337;48.202;12.770;2022-07-04T03:34:38;5.20;;;5.00;;
4363;SDS011;15337;48.202;12.770;2022-07-04T03:37:06;4.85;;;4.55;;
4363;SDS011;15337;48.202;12.770;2022-07-04T03:39:33;5.07;;;4.70;;
4363;SDS011;15337;48.202;12.770;2022-07-04T03:42:00;8.82;;;5.55;;
4363;SDS011;15337;48.202;12.770;2022-07-04T03:44:27;5.55;;;5.35;;
4363;SDS011;15337;48.202;12.770;2022-07-04T03:46:54;5.07;;;4.75;;
4363;SDS011;15337;48.202;12.770;2022-07-04T03:49:21;6.32;;;5.68;;
4363;SDS011;15337;48.202;12.770;2022-07-04T03:51:48;5.15;;;4.85;;
4363;SDS011;15337;48.202;12.770;2022-07-04T03:54:16;4.38;;;4.13;;
4363;SDS011;15337;48.202;12.770;2022-07-04T03:56:43;5.07;;;4.78;;
4363;SDS011;15337;48.202;12.770;2022-07-04T03:59:10;5.30;;;4.82;;
4363;SDS011;15337;48.202;12.770;2022-07-04T04:01:37;5.35;;;4.85;;
4363;SDS011;15337;48.202;12.770;2022-07-04T04:04:04;5.88;;;5.47;;
4363;SDS011;15337;48.202;12.770;2022-07-04T04:06:48;4.97;;;4.68;;
4363;SDS011;15337;48.202;12.770;2022-07-04T04:09:17;4.43;;;4.22;;
4363;SDS011;15337;48.202;12.770;2022-07-04T04:11:44;5.53;;;5.13;;
4363;SDS011;15337;48.202;12.770;2022-07-04T04:14:11;4.80;;;4.50;;
4363;SDS011;15337;48.202;12.770;2022-07-04T04:16:38;5.00;;;4.60;;
4363;SDS011;15337;48.202;12.770;2022-07-04T04:19:06;4.63;;;4.15;;
4363;SDS011;15337;48.202;12.770;2022-07-04T04:21:33;5.20;;;4.78;;
4363;SDS011;15337;48.202;12.770;2022-07-04T04:24:00;5.10;;;4.60;;
4363;SDS011;15337;48.202;12.770;2022-07-04T04:26:28;4.22;;;3.90;;
4363;SDS011;15337;48.202;12.770;2022-07-04T04:28:56;4.63;;;4.32;;
4363;SDS011;15337;48.202;12.770;2022-07-04T04:31:23;7.55;;;4.18;;
4363;SDS011;15337;48.202;12.770;2022-07-04T04:33:50;4.05;;;3.85;;
4363;SDS011;15337;48.202;12.770;2022-07-04T04:36:16;5.13;;;4.00;;
4363;SDS011;15337;48.202;12.770;2022-07-04T04:38:43;8.15;;;7.60;;
4363;SDS011;15337;48.202;12.770;2022-07-04T04:41:11;4.32;;;4.03;;
4363;SDS011;15337;48.202;12.770;2022-07-04T04:43:39;4.07;;;3.88;;
4363;SDS011;15337;48.202;12.770;2022-07-04T04:46:06;4.10;;;3.88;;
4363;SDS011;15337;48.202;12.770;2022-07-04T04:48:33;7.30;;;3.70;;
4363;SDS011;15337;48.202;12.770;2022-07-04T04:51:00;3.75;;;3.55;;
4363;SDS011;15337;48.202;12.770;2022-07-04T04:53:27;5.50;;;4.15;;
4363;SDS011;15337;48.202;12.770;2022-07-04T04:55:54;4.35;;;4.15;;
4363;SDS011;15337;48.202;12.770;2022-07-04T04:58:21;3.85;;;3.65;;
4363;SDS011;15337;48.202;12.770;2022-07-04T05:00:50;3.80;;;3.60;;
4363;SDS011;15337;48.202;12.770;2022-07-04T05:03:17;4.15;;;3.85;;
4363;SDS011;15337;48.202;12.770;2022-07-04T05:05:44;3.60;;;3.17;;
4363;SDS011;15337;48.202;12.770;2022-07-04T05:08:11;4.70;;;3.60;;
4363;SDS011;15337;48.202;12.770;2022-07-04T05:10:38;6.97;;;3.72;;
4363;SDS011;15337;48.202;12.770;2022-07-04T05:13:06;5.30;;;3.72;;
4363;SDS011;15337;48.202;12.770;2022-07-04T05:15:33;4.18;;;3.67;;
4363;SDS011;15337;48.202;12.770;2022-07-04T05:18:01;3.53;;;3.22;;
4363;SDS011;15337;48.202;12.770;2022-07-04T05:20:28;4.53;;;4.22;;
4363;SDS011;15337;48.202;12.770;2022-07-04T05:22:55;4.28;;;3.88;;
4363;SDS011;15337;48.202;12.770;2022-07-04T05:25:22;4.65;;;4.10;;
4363;SDS011;15337;48.202;12.770;2022-07-04T05:27:49;3.72;;;3.53;;
4363;SDS011;15337;48.202;12.770;2022-07-04T05:30:16;7.88;;;4.10;;
4363;SDS011;15337;48.202;12.770;2022-07-04T05:32:43;4.97;;;4.50;;
4363;SDS011;15337;48.202;12.770;2022-07-04T05:35:11;3.40;;;3.17;;
4363;SDS011;15337;48.202;12.770;2022-07-04T05:37:38;3.85;;;3.65;;
4363;SDS011;15337;48.202;12.770;2022-07-04T05:40:06;3.72;;;3.20;;
4363;SDS011;15337;48.202;12.770;2022-07-04T05:42:33;3.53;;;3.22;;
4363;SDS011;15337;48.202;12.770;2022-07-04T05:45:00;3.30;;;3.10;;
4363;SDS011;15337;48.202;12.770;2022-07-04T05:47:28;3.50;;;3.30;;
4363;SDS011;15337;48.202;12.770;2022-07-04T05:49:55;3.90;;;3.58;;
4363;SDS011;15337;48.202;12.770;2022-07-04T05:52:24;3.72;;;3.53;;
4363;SDS011;15337;48.202;12.770;2022-07-04T05:54:51;4.20;;;3.90;;
4363;SDS011;15337;48.202;12.770;2022-07-04T05:57:18;4.03;;;3.53;;
4363;SDS011;15337;48.202;12.770;2022-07-04T05:59:45;4.70;;;4.30;;
4363;SDS011;15337;48.202;12.770;2022-07-04T06:02:12;3.42;;;3.17;;
4363;SDS011;15337;48.202;12.770;2022-07-04T06:04:40;4.28;;;4.07;;
4363;SDS011;15337;48.202;12.770;2022-07-04T06:07:08;9.52;;;3.30;;
4363;SDS011;15337;48.202;12.770;2022-07-04T06:09:36;3.88;;;3.53;;
4363;SDS011;15337;48.202;12.770;2022-07-04T06:12:04;4.72;;;3.65;;
4363;SDS011;15337;48.202;12.770;2022-07-04T06:14:31;4.07;;;3.72;;
4363;SDS011;15337;48.202;12.770;2022-07-04T06:16:58;6.28;;;3.63;;
4363;SDS011;15337;48.202;12.770;2022-07-04T06:19:26;4.55;;;3.97;;
4363;SDS011;15337;48.202;12.770;2022-07-04T06:21:53;4.53;;;4.22;;
4363;SDS011;15337;48.202;12.770;2022-07-04T06:24:19;4.32;;;4.10;;
4363;SDS011;15337;48.202;12.770;2022-07-04T06:26:48;4.25;;;3.85;;
4363;SDS011;15337;48.202;12.770;2022-07-04T06:29:15;5.82;;;3.80;;
4363;SDS011;15337;48.202;12.770;2022-07-04T06:31:42;7.22;;;3.65;;
4363;SDS011;15337;48.202;12.770;2022-07-04T06:34:09;4.40;;;3.67;;
4363;SDS011;15337;48.202;12.770;2022-07-04T06:36:53;3.03;;;2.92;;
4363;SDS011;15337;48.202;12.770;2022-07-04T06:39:20;3.30;;;3.10;;
4363;SDS011;15337;48.202;12.770;2022-07-04T06:41:48;3.88;;;3.58;;
4363;SDS011;15337;48.202;12.770;2022-07-04T06:44:15;3.28;;;3.08;;
4363;SDS011;15337;48.202;12.770;2022-07-04T06:46:42;3.72;;;3.40;;
4363;SDS011;15337;48.202;12.770;2022-07-04T06:49:11;3.53;;;3.33;;
4363;SDS011;15337;48.202;12.770;2022-07-04T06:51:38;2.92;;;2.72;;
4363;SDS011;15337;48.202;12.770;2022-07-04T06:54:05;3.80;;;3.60;;
4363;SDS011;15337;48.202;12.770;2022-07-04T06:56:32;5.88;;;4.10;;
4363;SDS011;15337;48.202;12.770;2022-07-04T06:59:00;4.53;;;3.72;;
4363;SDS011;15337;48.202;12.770;2022-07-04T07:01:28;3.30;;;3.10;;
4363;SDS011;15337;48.202;12.770;2022-07-04T07:03:55;3.65;;;3.45;;
4363;SDS011;15337;48.202;12.770;2022-07-04T07:06:22;3.33;;;3.13;;
4363;SDS011;15337;48.202;12.770;2022-07-04T07:08:49;7.97;;;3.65;;
4363;SDS011;15337;48.202;12.770;2022-07-04T07:11:16;3.28;;;3.03;;
4363;SDS011;15337;48.202;12.770;2022-07-04T07:13:45;3.20;;;3.00;;
4363;SDS011;15337;48.202;12.770;2022-07-04T07:16:15;3.50;;;3.20;;
4363;SDS011;15337;48.202;12.770;2022-07-04T07:18:42;6.30;;;3.20;;
4363;SDS011;15337;48.202;12.770;2022-07-04T07:21:09;4.47;;;3.13;;
4363;SDS011;15337;48.202;12.770;2022-07-04T07:23:40;4.38;;;3.45;;
4363;SDS011;15337;48.202;12.770;2022-07-04T07:26:07;6.25;;;4.05;;
4363;SDS011;15337;48.202;12.770;2022-07-04T07:28:35;4.07;;;3.78;;
4363;SDS011;15337;48.202;12.770;2022-07-04T07:31:02;3.47;;;3.28;;
4363;SDS011;15337;48.202;12.770;2022-07-04T07:33:30;5.25;;;4.35;;
4363;SDS011;15337;48.202;12.770;2022-07-04T07:35:57;3.92;;;3.72;;
4363;SDS011;15337;48.202;12.770;2022-07-04T07:38:24;3.65;;;3.45;;
4363;SDS011;15337;48.202;12.770;2022-07-04T07:40:51;3.83;;;3.63;;
4363;SDS011;15337;48.202;12.770;2022-07-04T07:43:18;9.90;;;4.13;;
4363;SDS011;15337;48.202;12.770;2022-07-04T07:45:45;3.65;;;3.35;;
4363;SDS011;15337;48.202;12.770;2022-07-04T07:48:12;3.50;;;3.30;;
4363;SDS011;15337;48.202;12.770;2022-07-04T07:50:41;7.68;;;3.20;;
4363;SDS011;15337;48.202;12.770;2022-07-04T07:53:08;3.60;;;3.30;;
4363;SDS011;15337;48.202;12.770;2022-07-04T07:55:35;3.47;;;3.08;;
4363;SDS011;15337;48.202;12.770;2022-07-04T07:58:02;3.45;;;3.08;;
4363;SDS011;15337;48.202;12.770;2022-07-04T08:00:29;4.68;;;3.67;;
4363;SDS011;15337;48.202;12.770;2022-07-04T08:02:56;4.15;;;3.85;;
4363;SDS011;15337;48.202;12.770;2022-07-04T08:05:42;3.67;;;3.38;;
4363;SDS011;15337;48.202;12.770;2022-07-04T08:08:08;3.05;;;2.58;;
4363;SDS011;15337;48.202;12.770;2022-07-04T08:10:36;3.78;;;3.45;;
4363;SDS011;15337;48.202;12.770;2022-07-04T08:13:03;5.22;;;2.92;;
4363;SDS011;15337;48.202;12.770;2022-07-04T08:15:30;3.72;;;3.42;;
4363;SDS011;15337;48.202;12.770;2022-07-04T08:17:57;3.75;;;3.45;;
4363;SDS011;15337;48.202;12.770;2022-07-04T08:20:25;3.05;;;2.85;;
4363;SDS011;15337;48.202;12.770;2022-07-04T08:22:53;3.30;;;3.10;;
4363;SDS011;15337;48.202;12.770;2022-07-04T08:25:21;3.13;;;2.92;;
4363;SDS011;15337;48.202;12.770;2022-07-04T08:27:48;3.47;;;3.28;;
4363;SDS011;15337;48.202;12.770;2022-07-04T08:30:15;3.33;;;3.13;;
4363;SDS011;15337;48.202;12.770;2022-07-04T08:32:42;2.60;;;2.40;;
4363;SDS011;15337;48.202;12.770;2022-07-04T08:35:09;3.22;;;2.92;;
4363;SDS011;15337;48.202;12.770;2022-07-04T08:37:36;3.63;;;3.42;;
4363;SDS011;15337;48.202;12.770;2022-07-04T08:40:07;3.50;;;3.20;;
4363;SDS011;15337;48.202;12.770;2022-07-04T08:42:35;3.35;;;2.80;;
4363;SDS011;15337;48.202;12.770;2022-07-04T08:45:04;3.13;;;2.92;;
4363;SDS011;15337;48.202;12.770;2022-07-04T08:47:33;3.05;;;2.90;;
4363;SDS011;15337;48.202;12.770;2022-07-04T08:50:06;4.05;;;3.75;;
4363;SDS011;15337;48.202;12.770;2022-07-04T08:52:39;3.47;;;3.22;;
4363;SDS011;15337;48.202;12.770;2022-07-04T08:55:09;3.30;;;3.08;;
4363;SDS011;15337;48.202;12.770;2022-07-04T08:57:55;5.60;;;3.60;;
4363;SDS011;15337;48.202;12.770;2022-07-04T09:00:40;2.97;;;2.78;;
4363;SDS011;15337;48.202;12.770;2022-07-04T09:03:08;3.35;;;3.15;;
4363;SDS011;15337;48.202;12.770;2022-07-04T09:05:35;7.75;;;3.15;;
4363;SDS011;15337;48.202;12.770;2022-07-04T09:08:03;3.30;;;3.10;;
4363;SDS011;15337;48.202;12.770;2022-07-04T09:10:31;3.13;;;2.92;;
4363;SDS011;15337;48.202;12.770;2022-07-04T09:13:00;3.38;;;3.17;;
4363;SDS011;15337;48.202;12.770;2022-07-04T09:15:29;3.70;;;3.45;;
4363;SDS011;15337;48.202;12.770;2022-07-04T09:17:56;3.30;;;3.10;;
4363;SDS011;15337;48.202;12.770;2022-07-04T09:20:24;2.80;;;2.60;;
4363;SDS011;15337;48.202;12.770;2022-07-04T09:22:52;2.97;;;2.65;;
4363;SDS011;15337;48.202;12.770;2022-07-04T09:25:20;3.45;;;2.97;;
4363;SDS011;15337;48.202;12.770;2022-07-04T09:27:49;3.00;;;2.80;;
4363;SDS011;15337;48.202;12.770;2022-07-04T09:30:18;2.95;;;2.75;;
4363;SDS011;15337;48.202;12.770;2022-07-04T09:32:46;3.17;;;2.97;;
4363;SDS011;15337;48.202;12.770;2022-07-04T09:35:16;3.20;;;3.00;;
4363;SDS011;15337;48.202;12.770;2022-07-04T09:37:44;3.90;;;2.70;;
4363;SDS011;15337;48.202;12.770;2022-07-04T09:40:23;2.97;;;2.78;;
4363;SDS011;15337;48.202;12.770;2022-07-04T09:42:53;2.53;;;2.42;;
4363;SDS011;15337;48.202;12.770;2022-07-04T09:45:21;2.88;;;2.67;;
4363;SDS011;15337;48.202;12.770;2022-07-04T09:47:49;2.80;;;2.70;;
4363;SDS011;15337;48.202;12.770;2022-07-04T09:50:19;3.13;;;2.85;;
4363;SDS011;15337;48.202;12.770;2022-07-04T09:52:48;2.67;;;2.47;;
4363;SDS011;15337;48.202;12.770;2022-07-04T09:55:24;2.60;;;2.50;;
4363;SDS011;15337;48.202;12.770;2022-07-04T09:57:55;2.95;;;2.75;;
4363;SDS011;15337;48.202;12.770;2022-07-04T10:00:25;3.65;;;2.97;;
4363;SDS011;15337;48.202;12.770;2022-07-04T10:02:54;4.80;;;3.10;;
4363;SDS011;15337;48.202;12.770;2022-07-04T10:05:23;2.80;;;2.58;;
4363;SDS011;15337;48.202;12.770;2022-07-04T10:07:51;3.38;;;3.17;;
4363;SDS011;15337;48.202;12.770;2022-07-04T10:10:30;5.70;;;3.35;;
4363;SDS011;15337;48.202;12.770;2022-07-04T10:13:02;3.10;;;2.90;;
4363;SDS011;15337;48.202;12.770;2022-07-04T10:15:30;3.40;;;3.17;;
4363;SDS011;15337;48.202;12.770;2022-07-04T10:17:58;6.20;;;2.95;;
4363;SDS011;15337;48.202;12.770;2022-07-04T10:20:25;3.00;;;2.80;;
4363;SDS011;15337;48.202;12.770;2022-07-04T10:22:52;5.72;;;3.10;;
4363;SDS011;15337;48.202;12.770;2022-07-04T10:25:19;5.88;;;3.10;;
4363;SDS011;15337;48.202;12.770;2022-07-04T10:27:46;3.75;;;3.10;;
4363;SDS011;15337;48.202;12.770;2022-07-04T10:30:21;3.33;;;3.10;;
4363;SDS011;15337;48.202;12.770;2022-07-04T10:32:50;3.55;;;2.72;;
4363;SDS011;15337;48.202;12.770;2022-07-04T10:35:18;5.40;;;3.35;;
4363;SDS011;15337;48.202;12.770;2022-07-04T10:38:15;4.75;;;2.80;;
4363;SDS011;15337;48.202;12.770;2022-07-04T10:40:47;6.00;;;3.20;;
4363;SDS011;15337;48.202;12.770;2022-07-04T10:46:37;2.88;;;2.67;;
4363;SDS011;15337;48.202;12.770;2022-07-04T10:49:17;2.80;;;2.60;;
4363;SDS011;15337;48.202;12.770;2022-07-04T10:51:49;4.15;;;2.80;;
4363;SDS011;15337;48.202;12.770;2022-07-04T10:54:18;2.67;;;2.47;;
4363;SDS011;15337;48.202;12.770;2022-07-04T10:56:47;2.50;;;2.40;;
4363;SDS011;15337;48.202;12.770;2022-07-04T10:59:23;2.60;;;2.40;;
4363;SDS011;15337;48.202;12.770;2022-07-04T11:01:57;2.60;;;2.40;;
4363;SDS011;15337;48.202;12.770;2022-07-04T11:04:51;2.75;;;2.55;;
4363;SDS011;15337;48.202;12.770;2022-07-04T11:07:20;3.25;;;2.55;;
4363;SDS011;15337;48.202;12.770;2022-07-04T11:13:01;3.03;;;2.13;;
4363;SDS011;15337;48.202;12.770;2022-07-04T11:18:41;2.17;;;1.98;;
4363;SDS011;15337;48.202;12.770;2022-07-04T11:21:16;7.43;;;2.53;;
4363;SDS011;15337;48.202;12.770;2022-07-04T11:23:53;2.58;;;2.38;;
4363;SDS011;15337;48.202;12.770;2022-07-04T11:26:21;2.65;;;2.45;;
4363;SDS011;15337;48.202;12.770;2022-07-04T11:28:50;2.55;;;2.35;;
4363;SDS011;15337;48.202;12.770;2022-07-04T11:31:17;4.28;;;2.45;;
4363;SDS011;15337;48.202;12.770;2022-07-04T11:33:46;3.38;;;3.17;;
4363;SDS011;15337;48.202;12.770;2022-07-04T11:36:14;4.47;;;2.65;;
4363;SDS011;15337;48.202;12.770;2022-07-04T11:38:45;3.08;;;2.00;;
4363;SDS011;15337;48.202;12.770;2022-07-04T11:41:18;2.75;;;2.22;;
4363;SDS011;15337;48.202;12.770;2022-07-04T11:44:05;4.32;;;3.22;;
4363;SDS011;15337;48.202;12.770;2022-07-04T11:46:51;2.75;;;2.55;;
4363;SDS011;15337;48.202;12.770;2022-07-04T11:49:29;2.53;;;2.33;;
4363;SDS011;15337;48.202;12.770;2022-07-04T11:51:56;3.33;;;2.17;;
4363;SDS011;15337;48.202;12.770;2022-07-04T11:54:23;2.80;;;2.60;;
4363;SDS011;15337;48.202;12.770;2022-07-04T11:56:50;2.53;;;2.33;;
4363;SDS011;15337;48.202;12.770;2022-07-04T11:59:17;2.53;;;2.33;;
4363;SDS011;15337;48.202;12.770;2022-07-04T12:01:44;2.67;;;2.47;;
4363;SDS011;15337;48.202;12.770;2022-07-04T12:04:12;4.65;;;2.40;;
4363;SDS011;15337;48.202;12.770;2022-07-04T12:06:42;7.78;;;2.60;;
4363;SDS011;15337;48.202;12.770;2022-07-04T12:09:10;5.72;;;2.92;;
4363;SDS011;15337;48.202;12.770;2022-07-04T12:11:54;2.42;;;2.22;;
4363;SDS011;15337;48.202;12.770;2022-07-04T12:14:22;3.15;;;2.55;;
4363;SDS011;15337;48.202;12.770;2022-07-04T12:16:55;3.88;;;2.38;;
4363;SDS011;15337;48.202;12.770;2022-07-04T12:19:36;2.90;;;2.70;;
4363;SDS011;15337;48.202;12.770;2022-07-04T12:22:04;2.72;;;2.30;;
4363;SDS011;15337;48.202;12.770;2022-07-04T12:27:16;2.80;;;2.35;;
4363;SDS011;15337;48.202;12.770;2022-07-04T12:29:47;3.00;;;2.80;;
4363;SDS011;15337;48.202;12.770;2022-07-04T12:32:15;2.95;;;2.60;;
4363;SDS011;15337;48.202;12.770;2022-07-04T12:34:42;11.35;;;3.10;;
4363;SDS011;15337;48.202;12.770;2022-07-04T12:37:11;3.25;;;2.45;;
4363;SDS011;15337;48.202;12.770;2022-07-04T12:39:40;3.38;;;3.10;;
4363;SDS011;15337;48.202;12.770;2022-07-04T12:42:09;4.18;;;2.65;;
4363;SDS011;15337;48.202;12.770;2022-07-04T12:44:38;2.40;;;2.30;;
4363;SDS011;15337;48.202;12.770;2022-07-04T12:47:06;3.70;;;2.75;;
4363;SDS011;15337;48.202;12.770;2022-07-04T12:49:34;2.88;;;2.67;;
4363;SDS011;15337;48.202;12.770;2022-07-04T12:52:06;3.25;;;3.05;;
4363;SDS011;15337;48.202;12.770;2022-07-04T12:54:36;3.85;;;2.78;;
4363;SDS011;15337;48.202;12.770;2022-07-04T12:57:04;4.20;;;3.17;;
4363;SDS011;15337;48.202;12.770;2022-07-04T12:59:33;3.97;;;3.67;;
4363;SDS011;15337;48.202;12.770;2022-07-04T13:02:01;2.80;;;2.60;;
4363;SDS011;15337;48.202;12.770;2022-07-04T13:04:29;2.97;;;2.50;;
4363;SDS011;15337;48.202;12.770;2022-07-04T13:06:58;3.75;;;2.42;;
4363;SDS011;15337;48.202;12.770;2022-07-04T13:09:26;2.35;;;2.00;;
4363;SDS011;15337;48.202;12.770;2022-07-04T13:11:54;3.80;;;1.60;;
4363;SDS011;15337;48.202;12.770;2022-07-04T13:14:38;3.65;;;1.92;;
4363;SDS011;15337;48.202;12.770;2022-07-04T13:17:06;1.92;;;1.70;;
4363;SDS011;15337;48.202;12.770;2022-07-04T13:19:33;3.25;;;1.98;;
4363;SDS011;15337;48.202;12.770;2022-07-04T13:22:00;3.38;;;2.00;;
4363;SDS011;15337;48.202;12.770;2022-07-04T13:24:27;8.35;;;2.17;;
4363;SDS011;15337;48.202;12.770;2022-07-04T13:26:56;3.45;;;2.50;;
4363;SDS011;15337;48.202;12.770;2022-07-04T13:29:23;2.47;;;2.28;;
4363;SDS011;15337;48.202;12.770;2022-07-04T13:31:50;2.42;;;2.33;;
4363;SDS011;15337;48.202;12.770;2022-07-04T13:34:17;3.40;;;1.80;;
4363;SDS011;15337;48.202;12.770;2022-07-04T13:36:44;1.83;;;1.70;;
4363;SDS011;15337;48.202;12.770;2022-07-04T13:39:11;6.30;;;2.58;;
4363;SDS011;15337;48.202;12.770;2022-07-04T13:41:38;2.10;;;1.90;;
4363;SDS011;15337;48.202;12.770;2022-07-04T13:44:07;2.05;;;1.70;;
4363;SDS011;15337;48.202;12.770;2022-07-04T13:46:34;2.00;;;1.45;;
4363;SDS011;15337;48.202;12.770;2022-07-04T13:49:01;2.35;;;2.00;;
4363;SDS011;15337;48.202;12.770;2022-07-04T13:51:29;2.08;;;1.98;;
4363;SDS011;15337;48.202;12.770;2022-07-04T13:53:56;2.63;;;1.80;;
4363;SDS011;15337;48.202;12.770;2022-07-04T13:56:23;2.10;;;1.88;;
4363;SDS011;15337;48.202;12.770;2022-07-04T13:58:50;2.13;;;1.92;;
4363;SDS011;15337;48.202;12.770;2022-07-04T14:01:18;2.83;;;1.85;;
4363;SDS011;15337;48.202;12.770;2022-07-04T14:03:46;2.00;;;1.90;;
4363;SDS011;15337;48.202;12.770;2022-07-04T14:06:14;1.95;;;1.85;;
4363;SDS011;15337;48.202;12.770;2022-07-04T14:08:42;2.42;;;2.22;;
4363;SDS011;15337;48.202;12.770;2022-07-04T14:11:09;2.13;;;1.70;;
4363;SDS011;15337;48.202;12.770;2022-07-04T14:13:36;2.30;;;2.20;;
4363;SDS011;15337;48.202;12.770;2022-07-04T14:16:04;2.58;;;2.38;;
4363;SDS011;15337;48.202;12.770;2022-07-04T14:18:33;2.30;;;2.10;;
4363;SDS011;15337;48.202;12.770;2022-07-04T14:21:00;2.33;;;2.13;;
4363;SDS011;15337;48.202;12.770;2022-07-04T14:23:27;2.08;;;1.98;;
4363;SDS011;15337;48.202;12.770;2022-07-04T14:26:07;2.05;;;1.95;;
4363;SDS011;15337;48.202;12.770;2022-07-04T14:28:35;2.08;;;1.92;;
4363;SDS011;15337;48.202;12.770;2022-07-04T14:31:03;1.85;;;1.75;;
4363;SDS011;15337;48.202;12.770;2022-07-04T14:33:31;1.85;;;1.58;;
4363;SDS011;15337;48.202;12.770;2022-07-04T14:36:00;3.08;;;2.20;;
4363;SDS011;15337;48.202;12.770;2022-07-04T14:38:27;1.85;;;1.75;;
4363;SDS011;15337;48.202;12.770;2022-07-04T14:40:54;2.13;;;1.92;;
4363;SDS011;15337;48.202;12.770;2022-07-04T14:43:21;2.03;;;1.92;;
4363;SDS011;15337;48.202;12.770;2022-07-04T14:45:48;2.00;;;1.90;;
4363;SDS011;15337;48.202;12.770;2022-07-04T14:48:15;2.67;;;2.47;;
4363;SDS011;15337;48.202;12.770;2022-07-04T14:50:44;5.32;;;2.05;;
4363;SDS011;15337;48.202;12.770;2022-07-04T14:53:13;2.03;;;1.92;;
4363;SDS011;15337;48.202;12.770;2022-07-04T14:55:41;2.35;;;2.15;;
4363;SDS011;15337;48.202;12.770;2022-07-04T14:58:08;7.28;;;2.20;;
4363;SDS011;15337;48.202;12.770;2022-07-04T15:00:35;2.90;;;2.70;;
4363;SDS011;15337;48.202;12.770;2022-07-04T15:03:02;1.80;;;1.70;;
4363;SDS011;15337;48.202;12.770;2022-07-04T15:05:29;2.72;;;2.53;;
4363;SDS011;15337;48.202;12.770;2022-07-04T15:07:58;2.42;;;2.20;;